Glovis Prime — D7AC — position and weather

sailwx.info

Track history (hours):
 
Tides and Currents Weather Stations Pressure Air Temp Water Temp Dewpoint Dewpoint Depression Visibility Wind Speed Wind Dir Waves Ship Positions

Glovis Prime

Last reported at 2017-Oct-15 20:18 UTC. Time now 2017-Oct-18 09:38 UTC.
Position S 29°40' E 031°48'.

Length 184 m; draft 8.2 m.

Type: Cargo ship. MMSI: 440062000.

Date/timePositionNaut miles runAvg speedWind from/ knotsBaromVisibWave heightAir tempDewpointWater temp
2017-Oct-15 20:18S 29°40' E 031°48'413.1
2017-Oct-15 20:00S 29°41' E 031°43'815.3
2017-Oct-15 19:30S 29°43' E 031°35'816.3
2017-Oct-15 19:00S 29°45' E 031°26'815.8
2017-Oct-15 18:30S 29°48' E 031°17'714.7
2017-Oct-15 18:00S 29°50' E 031°09'611.5
2017-Oct-15 17:30S 29°53' E 031°03'1 2.5
2017-Oct-15 17:00S 29°52' E 031°02'0 0.0
2017-Oct-15 16:28S 29°52' E 031°02'0 0.0
2017-Oct-15 15:58S 29°52' E 031°02'0 0.0
2017-Oct-15 15:28S 29°52' E 031°02'0 0.0
2017-Oct-15 14:58S 29°52' E 031°02'0 0.0
2017-Oct-15 13:58S 29°52' E 031°02'0 0.0
2017-Oct-15 13:28S 29°52' E 031°02'0 0.0
2017-Oct-15 12:58S 29°52' E 031°02'0 0.0
2017-Oct-15 12:25S 29°52' E 031°02'0 0.0
2017-Oct-15 08:19S 29°52' E 031°02'0 0.1
2017-Oct-15 08:00S 29°52' E 031°02'2 3.9
2017-Oct-15 07:30S 29°51' E 031°04'3 6.6
2017-Oct-15 07:00S 29°49' E 031°06'0 0.8
2017-Oct-15 06:30S 29°49' E 031°07'0 0.6
2017-Oct-15 05:53S 29°49' E 031°07'0 0.6
2017-Oct-15 05:30S 29°49' E 031°08'0 0.9
2017-Oct-15 05:00S 29°49' E 031°08'3 5.7
2017-Oct-15 04:30S 29°50' E 031°11'510.6
2017-Oct-15 04:00S 29°53' E 031°16'713.2
2017-Oct-15 03:30S 29°59' E 031°19'713.8
2017-Oct-15 03:01S 30°06' E 031°17'714.3
2017-Oct-15 02:31S 30°11' E 031°11'815.3
2017-Oct-15 02:01S 30°15' E 031°05'815.7
2017-Oct-15 01:30S 30°21' E 030°58'  
2017-Oct-07 02:00S 05°26' E 011°02'713.7
2017-Oct-07 01:30S 05°20' E 011°05'713.8
2017-Oct-07 00:59S 05°14' E 011°09'713.6
2017-Oct-07 00:30S 05°08' E 011°13'714.1
2017-Oct-07 00:00S 05°05' E 011°19'714.6
2017-Oct-06 23:30S 05°03' E 011°26'  
Track history (hours):
 
Tides and Currents Weather Stations Pressure Air Temp Water Temp Dewpoint Dewpoint Depression Visibility Wind Speed Wind Dir Waves Ship Positions

Glovis Prime

Last reported at 2017-Oct-15 20:18 UTC. Time now 2017-Oct-18 09:38 UTC.
Position S 29°40' E 031°48'.

Length 184 m; draft 8.2 m.

Type: Cargo ship. MMSI: 440062000.

Date/timePositionNaut miles runAvg speedWind from/ knotsBaromVisibWave heightAir tempDewpointWater temp
2017-Oct-15 20:18S 29°40' E 031°48'413.1
2017-Oct-15 20:00S 29°41' E 031°43'815.3
2017-Oct-15 19:30S 29°43' E 031°35'816.3
2017-Oct-15 19:00S 29°45' E 031°26'815.8
2017-Oct-15 18:30S 29°48' E 031°17'714.7
2017-Oct-15 18:00S 29°50' E 031°09'611.5
2017-Oct-15 17:30S 29°53' E 031°03'1 2.5
2017-Oct-15 17:00S 29°52' E 031°02'0 0.0
2017-Oct-15 16:28S 29°52' E 031°02'0 0.0
2017-Oct-15 15:58S 29°52' E 031°02'0 0.0
2017-Oct-15 15:28S 29°52' E 031°02'0 0.0
2017-Oct-15 14:58S 29°52' E 031°02'0 0.0
2017-Oct-15 13:58S 29°52' E 031°02'0 0.0
2017-Oct-15 13:28S 29°52' E 031°02'0 0.0
2017-Oct-15 12:58S 29°52' E 031°02'0 0.0
2017-Oct-15 12:25S 29°52' E 031°02'0 0.0
2017-Oct-15 08:19S 29°52' E 031°02'0 0.1
2017-Oct-15 08:00S 29°52' E 031°02'2 3.9
2017-Oct-15 07:30S 29°51' E 031°04'3 6.6
2017-Oct-15 07:00S 29°49' E 031°06'0 0.8
2017-Oct-15 06:30S 29°49' E 031°07'0 0.6
2017-Oct-15 05:53S 29°49' E 031°07'0 0.6
2017-Oct-15 05:30S 29°49' E 031°08'0 0.9
2017-Oct-15 05:00S 29°49' E 031°08'3 5.7
2017-Oct-15 04:30S 29°50' E 031°11'510.6
2017-Oct-15 04:00S 29°53' E 031°16'713.2
2017-Oct-15 03:30S 29°59' E 031°19'713.8
2017-Oct-15 03:01S 30°06' E 031°17'714.3
2017-Oct-15 02:31S 30°11' E 031°11'815.3
2017-Oct-15 02:01S 30°15' E 031°05'815.7
2017-Oct-15 01:30S 30°21' E 030°58'  
2017-Oct-07 02:00S 05°26' E 011°02'713.7
2017-Oct-07 01:30S 05°20' E 011°05'713.8
2017-Oct-07 00:59S 05°14' E 011°09'713.6
2017-Oct-07 00:30S 05°08' E 011°13'714.1
2017-Oct-07 00:00S 05°05' E 011°19'714.6
2017-Oct-06 23:30S 05°03' E 011°26'  

Dump ship's entire track history